createdAt,value
2023-02-09T00:01:30.255Z,47.83
2023-02-09T00:04:00.670Z,47.00
2023-02-09T00:06:30.020Z,47.15
2023-02-09T00:08:58.477Z,50.42
2023-02-09T00:11:47.565Z,43.97
2023-02-09T00:14:17.904Z,42.83
2023-02-09T00:16:46.275Z,42.65
2023-02-09T00:19:14.443Z,44.13
2023-02-09T00:21:41.997Z,42.92
2023-02-09T00:24:12.678Z,43.08
2023-02-09T00:26:40.806Z,40.90
2023-02-09T00:29:09.562Z,39.08
2023-02-09T00:31:37.008Z,39.95
2023-02-09T00:34:05.497Z,40.35
2023-02-09T00:36:33.500Z,41.88
2023-02-09T00:39:01.474Z,37.13
2023-02-09T00:41:47.702Z,37.83
2023-02-09T00:44:15.912Z,39.03
2023-02-09T00:46:43.362Z,35.22
2023-02-09T00:49:10.907Z,37.53
2023-02-09T00:51:38.243Z,34.78
2023-02-09T00:54:05.646Z,37.85
2023-02-09T00:56:33.050Z,38.17
2023-02-09T00:59:00.464Z,38.92
2023-02-09T01:01:27.831Z,37.45
2023-02-09T01:03:55.585Z,35.33
2023-02-09T01:06:23.020Z,33.35
2023-02-09T01:08:50.915Z,34.38
2023-02-09T01:11:18.740Z,35.22
2023-02-09T01:13:46.448Z,31.95
2023-02-09T01:16:16.513Z,35.00
2023-02-09T01:18:44.617Z,29.80
2023-02-09T01:21:17.596Z,32.00
2023-02-09T01:23:46.120Z,32.00
2023-02-09T01:26:14.941Z,31.98
2023-02-09T01:28:42.975Z,31.42
2023-02-09T01:31:31.729Z,33.65
2023-02-09T01:34:00.979Z,30.85
2023-02-09T01:36:30.325Z,28.27
2023-02-09T01:38:59.872Z,30.48
2023-02-09T01:41:28.030Z,28.77
2023-02-09T01:44:05.859Z,29.02
2023-02-09T01:46:35.163Z,29.95
2023-02-09T01:49:12.407Z,29.05
2023-02-09T01:51:58.263Z,28.80
2023-02-09T01:54:29.898Z,30.58
2023-02-09T01:57:03.441Z,27.15
2023-02-09T01:59:30.847Z,27.70
2023-02-09T02:01:58.245Z,29.55
2023-02-09T02:04:25.585Z,26.77
2023-02-09T02:06:55.238Z,32.22
2023-02-09T02:09:22.740Z,35.72
2023-02-09T02:11:50.066Z,30.35
2023-02-09T02:14:37.554Z,28.08
2023-02-09T02:17:38.840Z,29.75
2023-02-09T02:20:28.016Z,27.95
2023-02-09T02:23:22.510Z,29.83
2023-02-09T02:26:22.411Z,27.73
2023-02-09T02:32:06.512Z,30.92
2023-02-09T02:34:46.063Z,31.95
2023-02-09T02:37:19.268Z,24.17
2023-02-09T02:39:52.728Z,27.90
2023-02-09T02:42:45.612Z,28.55
2023-02-09T02:45:34.211Z,29.27
2023-02-09T02:48:36.900Z,26.23
2023-02-09T02:51:16.101Z,26.00
2023-02-09T02:53:48.893Z,28.55
2023-02-09T02:56:19.781Z,26.15
2023-02-09T02:58:49.237Z,23.85
2023-02-09T03:01:21.269Z,23.35
2023-02-09T03:03:48.955Z,25.48
2023-02-09T03:06:17.048Z,29.58
2023-02-09T03:08:54.128Z,23.80
2023-02-09T03:11:23.639Z,28.00
2023-02-09T03:14:00.040Z,24.20
2023-02-09T03:16:44.027Z,29.05
2023-02-09T03:19:23.403Z,24.35
2023-02-09T03:22:00.852Z,26.38
2023-02-09T03:24:44.647Z,23.52
2023-02-09T03:27:15.863Z,26.30
2023-02-09T03:29:46.065Z,28.20
2023-02-09T03:32:14.521Z,29.38
2023-02-09T03:34:42.280Z,33.08
2023-02-09T03:37:09.670Z,35.08
2023-02-09T03:39:37.447Z,34.38
2023-02-09T03:42:04.976Z,36.83
2023-02-09T03:44:32.199Z,38.78
2023-02-09T03:47:01.487Z,37.30
2023-02-09T03:49:34.059Z,37.72
2023-02-09T03:52:02.339Z,35.33
2023-02-09T03:54:30.996Z,32.35
2023-02-09T03:57:00.058Z,36.90
2023-02-09T03:59:28.553Z,34.63
2023-02-09T04:01:58.130Z,32.78
2023-02-09T04:04:26.512Z,31.42
2023-02-09T04:06:53.968Z,28.65
2023-02-09T04:09:21.636Z,28.88
2023-02-09T04:11:49.507Z,31.45
2023-02-09T04:14:17.248Z,31.98
2023-02-09T04:16:44.819Z,25.15
2023-02-09T04:19:12.410Z,26.23
2023-02-09T04:21:39.968Z,30.95
2023-02-09T04:24:07.632Z,26.40
2023-02-09T04:26:35.868Z,31.10
2023-02-09T04:29:03.971Z,25.75
2023-02-09T04:31:31.730Z,26.65
2023-02-09T04:33:59.108Z,25.90
2023-02-09T04:36:26.411Z,28.50
2023-02-09T04:38:53.792Z,27.92
2023-02-09T04:41:21.141Z,28.05
2023-02-09T04:43:48.674Z,26.83
2023-02-09T04:46:16.992Z,30.40
2023-02-09T04:48:45.142Z,28.15
2023-02-09T04:51:13.136Z,26.08
2023-02-09T04:53:40.495Z,27.67
2023-02-09T04:56:07.985Z,29.85
2023-02-09T04:58:53.768Z,28.05
2023-02-09T05:01:23.555Z,27.15
2023-02-09T05:06:19.069Z,31.27
2023-02-09T05:08:46.354Z,34.53
2023-02-09T05:11:13.637Z,33.20
2023-02-09T05:13:41.446Z,30.08
2023-02-09T05:16:11.648Z,33.22
2023-02-09T05:18:39.002Z,30.65
2023-02-09T05:21:06.382Z,31.02
2023-02-09T05:23:33.628Z,32.78
2023-02-09T05:26:01.228Z,34.72
2023-02-09T05:28:28.634Z,31.55
2023-02-09T05:30:56.023Z,30.63
2023-02-09T05:33:24.644Z,32.33
2023-02-09T05:35:52.668Z,33.58
2023-02-09T05:38:20.146Z,35.10
2023-02-09T05:40:49.635Z,32.67
2023-02-09T05:43:24.442Z,33.10
2023-02-09T05:45:52.045Z,37.00
2023-02-09T05:48:19.398Z,32.58
2023-02-09T05:50:47.984Z,35.75
2023-02-09T05:53:16.490Z,34.55
2023-02-09T05:55:44.022Z,35.28
2023-02-09T05:58:11.345Z,33.72
2023-02-09T06:00:38.785Z,32.80
2023-02-09T06:03:06.200Z,36.95
2023-02-09T06:05:33.622Z,35.53
2023-02-09T06:08:01.008Z,33.35
2023-02-09T06:10:28.383Z,37.75
2023-02-09T06:12:55.726Z,34.17
2023-02-09T06:15:23.181Z,36.42
2023-02-09T06:17:50.516Z,36.95
2023-02-09T06:20:18.013Z,35.25
2023-02-09T06:22:45.279Z,36.03
2023-02-09T06:25:12.842Z,40.85
2023-02-09T06:27:40.314Z,38.05
2023-02-09T06:30:08.177Z,37.10
2023-02-09T06:32:35.677Z,39.45
2023-02-09T06:35:02.973Z,39.63
2023-02-09T06:37:34.155Z,39.60
2023-02-09T06:40:01.519Z,40.47
2023-02-09T06:42:44.008Z,39.58
2023-02-09T06:45:14.309Z,36.88
2023-02-09T06:47:42.761Z,47.13
2023-02-09T06:50:11.507Z,41.08
2023-02-09T06:52:39.005Z,40.72
2023-02-09T06:55:07.158Z,40.70
2023-02-09T06:57:35.134Z,44.00
2023-02-09T07:00:07.392Z,43.78
2023-02-09T07:02:35.557Z,38.70
2023-02-09T07:05:02.823Z,47.90
2023-02-09T07:07:30.191Z,45.75
2023-02-09T07:09:57.475Z,45.00
2023-02-09T07:12:25.261Z,44.58
2023-02-09T07:14:52.895Z,45.42
2023-02-09T07:17:20.218Z,39.10
2023-02-09T07:19:47.903Z,45.10
2023-02-09T07:22:15.425Z,38.58
2023-02-09T07:24:42.832Z,42.75
2023-02-09T07:27:10.090Z,38.22
2023-02-09T07:29:37.366Z,37.65
2023-02-09T07:32:07.128Z,41.25
2023-02-09T07:34:35.439Z,50.42
2023-02-09T07:37:03.814Z,38.13
2023-02-09T07:39:31.678Z,37.40
2023-02-09T07:41:59.171Z,42.85
2023-02-09T07:44:40.401Z,39.70
2023-02-09T07:47:08.005Z,43.90
2023-02-09T07:49:38.599Z,42.90
2023-02-09T07:52:06.086Z,53.83
2023-02-09T07:54:33.535Z,46.60
2023-02-09T07:57:00.882Z,44.25
2023-02-09T07:59:28.215Z,43.47
2023-02-09T08:01:55.687Z,50.35
2023-02-09T08:04:24.048Z,46.50
2023-02-09T08:06:53.210Z,41.13
2023-02-09T08:09:20.549Z,43.55
2023-02-09T08:12:02.686Z,48.00
2023-02-09T08:14:39.817Z,47.78
2023-02-09T08:17:23.232Z,47.33
2023-02-09T08:19:54.678Z,42.03
2023-02-09T08:22:24.369Z,54.60
2023-02-09T08:24:51.932Z,40.20
2023-02-09T08:27:19.235Z,51.22
2023-02-09T08:29:48.864Z,43.88
2023-02-09T08:32:16.468Z,41.03
2023-02-09T08:34:43.814Z,48.92
2023-02-09T08:37:20.550Z,45.33
2023-02-09T08:39:48.257Z,40.13
2023-02-09T08:42:15.545Z,44.60
2023-02-09T08:44:42.780Z,41.10
2023-02-09T08:47:13.517Z,37.90
2023-02-09T08:49:45.221Z,46.08
2023-02-09T08:52:15.390Z,51.45
2023-02-09T08:54:42.725Z,45.67
2023-02-09T08:57:10.264Z,45.00
2023-02-09T08:59:37.891Z,44.63
2023-02-09T09:02:05.207Z,46.25
2023-02-09T09:04:32.730Z,42.80
2023-02-09T09:07:00.730Z,42.10
2023-02-09T09:09:28.980Z,39.35
2023-02-09T09:11:57.204Z,39.47
2023-02-09T09:14:26.641Z,42.45
2023-02-09T09:16:57.380Z,41.10
2023-02-09T09:19:25.359Z,42.38
2023-02-09T09:21:52.873Z,41.60
2023-02-09T09:24:21.185Z,39.28
2023-02-09T09:26:48.741Z,35.45
2023-02-09T09:29:18.912Z,37.83
2023-02-09T09:31:46.435Z,41.88
2023-02-09T09:34:13.812Z,36.92
2023-02-09T09:36:41.109Z,34.42
2023-02-09T09:39:14.390Z,36.60
2023-02-09T09:41:44.701Z,35.28
2023-02-09T09:44:47.110Z,39.45
2023-02-09T09:47:24.451Z,35.85
2023-02-09T09:49:52.104Z,41.42
2023-02-09T09:52:29.319Z,38.78
2023-02-09T09:54:58.396Z,37.70
2023-02-09T09:57:27.977Z,34.47
2023-02-09T10:00:01.469Z,36.47
2023-02-09T10:02:33.674Z,37.40
2023-02-09T10:05:21.385Z,37.95
2023-02-09T10:08:06.083Z,33.53
2023-02-09T10:10:57.027Z,33.58
2023-02-09T10:13:26.508Z,41.65
2023-02-09T10:15:57.385Z,41.17
2023-02-09T10:18:27.898Z,40.55
2023-02-09T10:20:58.925Z,39.15
2023-02-09T10:23:29.125Z,36.10
2023-02-09T10:26:03.133Z,38.60
2023-02-09T10:28:33.310Z,36.08
2023-02-09T10:31:02.791Z,41.45
2023-02-09T10:33:38.819Z,66.00
2023-02-09T10:36:08.744Z,44.55
2023-02-09T10:41:09.106Z,41.03
2023-02-09T10:43:37.050Z,47.83
2023-02-09T10:46:20.237Z,39.83
2023-02-09T10:48:48.034Z,49.55
2023-02-09T10:51:28.896Z,44.70
2023-02-09T10:54:00.275Z,45.28
2023-02-09T10:56:35.970Z,44.33
2023-02-09T10:59:15.544Z,50.95
2023-02-09T11:01:44.745Z,49.75
2023-02-09T11:04:21.881Z,43.60
2023-02-09T11:06:56.694Z,53.55
2023-02-09T11:09:29.662Z,46.15
2023-02-09T11:11:57.205Z,44.72
2023-02-09T11:14:31.542Z,45.05
2023-02-09T11:17:17.695Z,48.80
2023-02-09T11:20:14.393Z,54.88
2023-02-09T11:22:47.733Z,43.00
2023-02-09T11:25:25.422Z,47.42
2023-02-09T11:27:58.691Z,50.17
2023-02-09T11:31:03.546Z,38.97
2023-02-09T11:33:40.470Z,39.80
2023-02-09T11:36:17.171Z,43.05
2023-02-09T11:38:51.538Z,46.38
2023-02-09T11:41:48.945Z,45.50
2023-02-09T11:44:42.699Z,45.83
2023-02-09T11:47:15.040Z,46.38
2023-02-09T11:49:48.968Z,55.55
2023-02-09T11:52:20.844Z,46.08
2023-02-09T11:54:52.164Z,43.28
2023-02-09T11:57:33.126Z,48.75
2023-02-09T12:00:05.175Z,45.22
2023-02-09T12:02:54.150Z,54.65
2023-02-09T12:05:22.832Z,41.65
2023-02-09T12:08:09.314Z,36.45
2023-02-09T12:11:19.222Z,39.67
2023-02-09T12:13:59.457Z,39.38
2023-02-09T12:16:33.206Z,46.22
2023-02-09T12:19:01.855Z,37.65
2023-02-09T12:21:34.405Z,52.63
2023-02-09T12:24:02.055Z,36.60
2023-02-09T12:26:44.168Z,42.72
2023-02-09T12:29:30.060Z,43.63
2023-02-09T12:32:06.903Z,38.00
2023-02-09T12:34:49.720Z,42.55
2023-02-09T12:37:27.455Z,39.38
2023-02-09T12:40:07.125Z,40.88
2023-02-09T12:42:53.654Z,42.90
2023-02-09T12:45:36.304Z,38.65
2023-02-09T12:48:09.727Z,46.00
2023-02-09T12:50:43.625Z,43.53
2023-02-09T12:53:31.970Z,37.75
2023-02-09T12:56:11.446Z,37.50
2023-02-09T12:58:44.722Z,46.72
2023-02-09T13:01:14.322Z,40.10
2023-02-09T13:03:49.292Z,40.58
2023-02-09T13:06:37.303Z,40.88
2023-02-09T13:09:08.727Z,39.63
2023-02-09T13:11:51.035Z,38.95
2023-02-09T13:14:19.477Z,38.15
2023-02-09T13:17:02.038Z,44.20
2023-02-09T13:19:47.678Z,46.88
2023-02-09T13:22:34.524Z,39.65
2023-02-09T13:25:16.918Z,43.95
2023-02-09T13:27:51.020Z,39.88
2023-02-09T13:30:31.578Z,40.78
2023-02-09T13:33:24.055Z,43.58
2023-02-09T13:35:57.826Z,39.03
2023-02-09T13:38:30.149Z,38.40
2023-02-09T13:41:00.509Z,38.60
2023-02-09T13:43:33.053Z,40.70
2023-02-09T13:46:01.951Z,36.65
2023-02-09T13:48:33.229Z,37.97
2023-02-09T13:51:03.647Z,38.30
2023-02-09T13:53:31.746Z,38.30
2023-02-09T13:56:00.531Z,39.47
2023-02-09T13:58:31.283Z,40.60
2023-02-09T14:01:11.577Z,37.63
2023-02-09T14:03:58.109Z,37.00
2023-02-09T14:06:36.131Z,35.60
2023-02-09T14:09:04.780Z,39.55
2023-02-09T14:11:42.849Z,44.25
2023-02-09T14:14:11.392Z,37.47
2023-02-09T14:16:52.565Z,38.50
2023-02-09T14:19:31.874Z,40.45
2023-02-09T14:21:59.236Z,35.83
2023-02-09T14:24:28.615Z,33.28
2023-02-09T14:27:15.118Z,32.58
2023-02-09T14:29:46.232Z,36.53
2023-02-09T14:32:32.897Z,53.08
2023-02-09T14:35:41.834Z,36.15
2023-02-09T14:38:43.992Z,32.58
2023-02-09T14:41:31.611Z,34.80
2023-02-09T14:44:03.609Z,34.50
2023-02-09T14:46:47.505Z,34.30
2023-02-09T14:49:14.886Z,38.90
2023-02-09T14:51:42.983Z,35.42
2023-02-09T14:54:24.170Z,43.70
2023-02-09T14:56:52.999Z,35.53
2023-02-09T14:59:21.882Z,33.47
2023-02-09T15:01:52.476Z,35.65
2023-02-09T15:04:20.311Z,37.65
2023-02-09T15:06:58.962Z,36.85
2023-02-09T15:09:31.686Z,35.38
2023-02-09T15:12:05.204Z,34.67
2023-02-09T15:14:41.589Z,34.30
2023-02-09T15:17:15.597Z,35.55
2023-02-09T15:19:43.614Z,45.50
2023-02-09T15:22:14.940Z,44.35
2023-02-09T15:24:43.593Z,36.42
2023-02-09T15:27:17.602Z,43.30
2023-02-09T15:29:45.156Z,42.20
2023-02-09T15:32:17.288Z,43.47
2023-02-09T15:34:44.864Z,41.55
2023-02-09T15:37:22.138Z,41.88
2023-02-09T15:39:51.191Z,44.35
2023-02-09T15:42:38.431Z,44.97
2023-02-09T15:45:40.349Z,41.80
2023-02-09T15:48:08.587Z,46.00
2023-02-09T15:50:39.170Z,44.65
2023-02-09T15:53:12.610Z,44.47
2023-02-09T15:55:40.258Z,41.35
2023-02-09T15:58:35.375Z,41.13
2023-02-09T16:01:04.214Z,45.65
2023-02-09T16:03:31.855Z,47.20
2023-02-09T16:06:04.052Z,41.75
2023-02-09T16:08:33.304Z,46.67
2023-02-09T16:11:02.167Z,42.78
2023-02-09T16:13:32.838Z,45.60
2023-02-09T16:16:14.794Z,49.22
2023-02-09T16:18:44.416Z,47.38
2023-02-09T16:21:33.738Z,50.17
2023-02-09T16:24:02.979Z,48.30
2023-02-09T16:26:31.099Z,45.60
2023-02-09T16:28:58.666Z,44.97
2023-02-09T16:31:26.383Z,48.50
2023-02-09T16:33:53.766Z,54.17
2023-02-09T16:36:23.855Z,49.15
2023-02-09T16:41:38.020Z,51.55
2023-02-09T16:44:17.027Z,45.80
2023-02-09T16:46:47.173Z,52.47
2023-02-09T16:49:34.617Z,45.97
2023-02-09T16:52:06.535Z,44.08
2023-02-09T16:54:41.155Z,46.90
2023-02-09T16:57:13.294Z,49.60
2023-02-09T16:59:40.820Z,48.00
2023-02-09T17:02:34.554Z,54.63
2023-02-09T17:05:05.773Z,53.10
2023-02-09T17:07:45.456Z,50.70
2023-02-09T17:10:22.992Z,52.28
2023-02-09T17:12:52.611Z,50.47
2023-02-09T17:15:30.183Z,51.95
2023-02-09T17:18:04.900Z,52.13
2023-02-09T17:20:40.568Z,48.08
2023-02-09T17:23:11.648Z,54.22
2023-02-09T17:25:39.046Z,52.83
2023-02-09T17:28:06.791Z,54.35
2023-02-09T17:30:35.286Z,56.67
2023-02-09T17:33:05.104Z,59.53
2023-02-09T17:36:03.564Z,52.05
2023-02-09T17:38:26.359Z,53.22
2023-02-09T17:40:55.233Z,59.22
2023-02-09T17:43:24.034Z,59.35
2023-02-09T17:45:52.210Z,56.53
2023-02-09T17:48:20.926Z,55.08
2023-02-09T17:50:51.832Z,57.95
2023-02-09T17:53:26.728Z,56.42
2023-02-09T17:55:56.580Z,57.90
2023-02-09T17:58:24.093Z,56.72
2023-02-09T18:00:53.185Z,55.88
2023-02-09T18:03:22.179Z,54.20
2023-02-09T18:06:01.550Z,50.55
2023-02-09T18:08:29.203Z,54.50
2023-02-09T18:10:58.652Z,57.88
2023-02-09T18:13:27.135Z,56.20
2023-02-09T18:15:54.759Z,61.58
2023-02-09T18:18:24.193Z,58.38
2023-02-09T18:20:52.338Z,66.85
2023-02-09T18:23:19.851Z,62.25
2023-02-09T18:25:49.665Z,58.95
2023-02-09T18:30:44.922Z,65.55
2023-02-09T18:33:12.661Z,62.83
2023-02-09T18:35:41.736Z,61.08
2023-02-09T18:38:10.735Z,60.92
2023-02-09T18:40:39.152Z,55.08
2023-02-09T18:43:07.434Z,57.25
2023-02-09T18:45:35.678Z,60.65
2023-02-09T18:48:03.109Z,64.05
2023-02-09T18:50:31.941Z,76.07
2023-02-09T18:53:03.835Z,78.55
2023-02-09T18:55:34.049Z,83.30
2023-02-09T18:58:04.330Z,76.82
2023-02-09T19:00:32.486Z,67.68
2023-02-09T19:02:59.984Z,64.60
2023-02-09T19:05:30.075Z,63.90
2023-02-09T19:10:27.627Z,67.05
2023-02-09T19:12:55.513Z,75.28
2023-02-09T19:15:25.696Z,73.10
2023-02-09T19:17:56.457Z,69.97
2023-02-09T19:20:26.644Z,69.95
2023-02-09T19:22:54.786Z,65.03
2023-02-09T19:25:25.314Z,72.45
2023-02-09T19:27:53.310Z,78.50
2023-02-09T19:30:25.090Z,79.22
2023-02-09T19:32:54.094Z,77.63
2023-02-09T19:35:22.878Z,69.53
2023-02-09T19:37:54.542Z,71.95
2023-02-09T19:40:33.693Z,69.90
2023-02-09T19:43:01.252Z,68.93
2023-02-09T19:45:36.456Z,70.07
2023-02-09T19:48:05.477Z,68.80
2023-02-09T19:50:36.759Z,69.68
2023-02-09T19:53:05.725Z,66.13
2023-02-09T19:55:33.527Z,68.50
2023-02-09T19:58:01.112Z,82.30
2023-02-09T20:00:28.394Z,67.80
2023-02-09T20:02:55.911Z,65.40
2023-02-09T20:05:23.224Z,72.60
2023-02-09T20:07:53.180Z,75.85
2023-02-09T20:12:48.924Z,76.82
2023-02-09T20:15:16.525Z,82.78
2023-02-09T20:17:44.365Z,82.20
2023-02-09T20:20:12.298Z,86.50
2023-02-09T20:22:39.681Z,101.10
2023-02-09T20:25:07.387Z,105.53
2023-02-09T20:27:35.052Z,87.05
2023-02-09T20:30:05.383Z,82.43
2023-02-09T20:32:33.756Z,75.80
2023-02-09T20:35:01.025Z,77.40
2023-02-09T20:37:28.418Z,76.75
2023-02-09T20:39:55.962Z,79.40
2023-02-09T20:42:42.173Z,73.03
2023-02-09T20:45:32.759Z,81.75
2023-02-09T20:48:00.139Z,79.40
2023-02-09T20:50:27.602Z,79.22
2023-02-09T20:52:54.895Z,82.55
2023-02-09T20:55:22.890Z,77.57
2023-02-09T20:57:50.550Z,84.53
2023-02-09T21:00:17.974Z,78.60
2023-02-09T21:02:45.367Z,80.72
2023-02-09T21:05:12.754Z,83.88
2023-02-09T21:07:40.076Z,85.05
2023-02-09T21:10:07.698Z,77.10
2023-02-09T21:12:35.062Z,76.85
2023-02-09T21:15:02.376Z,83.70
2023-02-09T21:17:29.813Z,80.57
2023-02-09T21:19:57.274Z,93.30
2023-02-09T21:22:24.670Z,80.95
2023-02-09T21:24:52.049Z,82.82
2023-02-09T21:27:19.486Z,82.78
2023-02-09T21:29:46.802Z,78.90
2023-02-09T21:32:14.077Z,79.20
2023-02-09T21:34:42.664Z,81.50
2023-02-09T21:37:14.046Z,77.38
2023-02-09T21:39:41.769Z,83.38
2023-02-09T21:42:28.826Z,73.47
2023-02-09T21:44:56.766Z,82.82
2023-02-09T21:47:38.119Z,86.43
2023-02-09T21:50:07.833Z,83.70
2023-02-09T21:52:35.631Z,89.68
2023-02-09T21:55:04.158Z,81.50
2023-02-09T21:57:31.699Z,84.55
2023-02-09T22:00:00.041Z,80.80
2023-02-09T22:02:27.961Z,79.22
2023-02-09T22:04:55.527Z,84.40
2023-02-09T22:07:23.396Z,79.78
2023-02-09T22:09:50.790Z,83.93
2023-02-09T22:12:18.173Z,93.95
2023-02-09T22:14:45.443Z,86.93
2023-02-09T22:17:12.788Z,84.85
2023-02-09T22:19:41.490Z,86.13
2023-02-09T22:22:10.109Z,76.95
2023-02-09T22:24:37.998Z,74.47
2023-02-09T22:27:05.304Z,80.03
2023-02-09T22:29:35.414Z,81.38
2023-02-09T22:32:03.263Z,77.60
2023-02-09T22:34:31.331Z,80.75
2023-02-09T22:36:58.608Z,76.13
2023-02-09T22:39:25.908Z,76.45
2023-02-09T22:41:57.979Z,82.65
2023-02-09T22:44:27.905Z,75.88
2023-02-09T22:46:55.232Z,80.20
2023-02-09T22:49:26.770Z,81.05
2023-02-09T22:51:54.133Z,80.25
2023-02-09T22:54:21.467Z,75.30
2023-02-09T22:56:49.026Z,85.30
2023-02-09T22:59:16.291Z,95.88
2023-02-09T23:01:44.265Z,92.30
2023-02-09T23:04:11.697Z,74.65
2023-02-09T23:06:39.178Z,77.93
2023-02-09T23:09:07.520Z,76.75
2023-02-09T23:11:35.308Z,78.28
2023-02-09T23:14:11.098Z,80.47
2023-02-09T23:16:40.176Z,84.68
2023-02-09T23:19:09.921Z,79.68
2023-02-09T23:21:39.329Z,83.25
2023-02-09T23:24:07.086Z,81.18
2023-02-09T23:26:34.922Z,82.13
2023-02-09T23:29:04.524Z,77.70
2023-02-09T23:31:32.298Z,80.80
2023-02-09T23:33:59.692Z,83.18
2023-02-09T23:36:29.560Z,70.53
2023-02-09T23:39:05.769Z,77.45
2023-02-09T23:41:33.937Z,78.63
2023-02-09T23:44:01.765Z,76.88
2023-02-09T23:46:29.418Z,75.82
2023-02-09T23:48:57.427Z,75.40
2023-02-09T23:51:28.429Z,73.93
2023-02-09T23:53:57.453Z,77.00
2023-02-09T23:56:25.476Z,73.47
2023-02-09T23:58:53.102Z,72.30
